sensor_id;sensor_type;location;lat;lon;timestamp;temperature;humidity
59208;DHT22;44977;53.132;6.408;2023-08-06T00:04:07;14.30;99.90
59208;DHT22;44977;53.132;6.408;2023-08-06T00:09:07;14.30;99.90
59208;DHT22;44977;53.132;6.408;2023-08-06T00:14:08;14.30;99.90
59208;DHT22;44977;53.132;6.408;2023-08-06T00:19:09;14.30;99.90
59208;DHT22;44977;53.132;6.408;2023-08-06T00:24:10;14.30;99.90
59208;DHT22;44977;53.132;6.408;2023-08-06T00:29:10;14.30;99.90
59208;DHT22;44977;53.132;6.408;2023-08-06T00:34:11;14.30;99.90
59208;DHT22;44977;53.132;6.408;2023-08-06T00:39:12;14.30;99.90
59208;DHT22;44977;53.132;6.408;2023-08-06T00:44:12;14.30;99.90
59208;DHT22;44977;53.132;6.408;2023-08-06T00:49:13;14.30;99.90
59208;DHT22;44977;53.132;6.408;2023-08-06T00:54:14;14.30;99.90
59208;DHT22;44977;53.132;6.408;2023-08-06T00:59:15;14.20;99.90
59208;DHT22;44977;53.132;6.408;2023-08-06T01:04:16;14.20;99.90
59208;DHT22;44977;53.132;6.408;2023-08-06T01:19:56;14.20;99.90
59208;DHT22;44977;53.132;6.408;2023-08-06T01:24:56;14.20;99.90
59208;DHT22;44977;53.132;6.408;2023-08-06T01:30:04;14.20;99.90
59208;DHT22;44977;53.132;6.408;2023-08-06T01:35:08;14.20;99.90
59208;DHT22;44977;53.132;6.408;2023-08-06T01:40:11;14.20;99.90
59208;DHT22;44977;53.132;6.408;2023-08-06T01:45:12;14.20;99.90
59208;DHT22;44977;53.132;6.408;2023-08-06T01:50:13;14.20;99.90
59208;DHT22;44977;53.132;6.408;2023-08-06T01:55:14;14.20;99.90
59208;DHT22;44977;53.132;6.408;2023-08-06T02:00:15;14.20;99.90
59208;DHT22;44977;53.132;6.408;2023-08-06T02:05:15;14.20;99.90
59208;DHT22;44977;53.132;6.408;2023-08-06T02:10:16;14.20;99.90
59208;DHT22;44977;53.132;6.408;2023-08-06T02:15:17;14.20;99.90
59208;DHT22;44977;53.132;6.408;2023-08-06T02:20:17;14.20;99.90
59208;DHT22;44977;53.132;6.408;2023-08-06T02:25:18;14.20;99.90
59208;DHT22;44977;53.132;6.408;2023-08-06T02:30:19;14.10;99.90
59208;DHT22;44977;53.132;6.408;2023-08-06T02:35:19;14.10;99.90
59208;DHT22;44977;53.132;6.408;2023-08-06T02:40:20;14.20;99.90
59208;DHT22;44977;53.132;6.408;2023-08-06T02:45:21;14.20;99.90
59208;DHT22;44977;53.132;6.408;2023-08-06T02:50:22;14.20;99.90
59208;DHT22;44977;53.132;6.408;2023-08-06T02:55:22;14.20;99.90
59208;DHT22;44977;53.132;6.408;2023-08-06T03:00:23;14.20;99.90
59208;DHT22;44977;53.132;6.408;2023-08-06T03:05:24;14.10;99.90
59208;DHT22;44977;53.132;6.408;2023-08-06T03:10:24;14.20;99.90
59208;DHT22;44977;53.132;6.408;2023-08-06T03:15:25;14.20;99.90
59208;DHT22;44977;53.132;6.408;2023-08-06T03:20:26;14.20;99.90
59208;DHT22;44977;53.132;6.408;2023-08-06T03:25:26;14.10;99.90
59208;DHT22;44977;53.132;6.408;2023-08-06T03:30:27;14.20;99.90
59208;DHT22;44977;53.132;6.408;2023-08-06T03:35:28;14.20;99.90
59208;DHT22;44977;53.132;6.408;2023-08-06T03:40:29;14.20;99.90
59208;DHT22;44977;53.132;6.408;2023-08-06T03:45:29;14.20;99.90
59208;DHT22;44977;53.132;6.408;2023-08-06T03:50:30;14.20;99.90
59208;DHT22;44977;53.132;6.408;2023-08-06T03:55:31;14.20;99.90
59208;DHT22;44977;53.132;6.408;2023-08-06T04:00:31;14.20;99.90
59208;DHT22;44977;53.132;6.408;2023-08-06T04:05:32;14.20;99.90
59208;DHT22;44977;53.132;6.408;2023-08-06T04:10:33;14.20;99.90
59208;DHT22;44977;53.132;6.408;2023-08-06T04:15:34;14.30;99.90
59208;DHT22;44977;53.132;6.408;2023-08-06T04:20:43;14.20;99.90
59208;DHT22;44977;53.132;6.408;2023-08-06T04:25:44;14.30;99.90
59208;DHT22;44977;53.132;6.408;2023-08-06T04:30:44;14.30;99.90
59208;DHT22;44977;53.132;6.408;2023-08-06T04:35:45;14.30;99.90
59208;DHT22;44977;53.132;6.408;2023-08-06T04:40:46;14.30;99.90
59208;DHT22;44977;53.132;6.408;2023-08-06T04:45:48;14.30;99.90
59208;DHT22;44977;53.132;6.408;2023-08-06T04:50:50;14.30;99.90
59208;DHT22;44977;53.132;6.408;2023-08-06T04:55:50;14.30;99.90
59208;DHT22;44977;53.132;6.408;2023-08-06T05:00:53;14.40;99.90
59208;DHT22;44977;53.132;6.408;2023-08-06T05:05:54;14.40;99.90
59208;DHT22;44977;53.132;6.408;2023-08-06T05:10:54;14.50;99.90
59208;DHT22;44977;53.132;6.408;2023-08-06T05:15:55;14.60;99.90
59208;DHT22;44977;53.132;6.408;2023-08-06T05:20:56;14.60;99.90
59208;DHT22;44977;53.132;6.408;2023-08-06T05:25:57;14.60;99.90
59208;DHT22;44977;53.132;6.408;2023-08-06T05:30:58;14.70;99.90
59208;DHT22;44977;53.132;6.408;2023-08-06T05:35:58;14.70;99.90
59208;DHT22;44977;53.132;6.408;2023-08-06T05:40:59;14.80;99.90
59208;DHT22;44977;53.132;6.408;2023-08-06T05:46:00;14.80;99.90
59208;DHT22;44977;53.132;6.408;2023-08-06T05:51:00;14.80;99.90
59208;DHT22;44977;53.132;6.408;2023-08-06T05:56:01;14.90;99.90
59208;DHT22;44977;53.132;6.408;2023-08-06T06:01:02;14.90;99.90
59208;DHT22;44977;53.132;6.408;2023-08-06T06:06:03;15.00;99.90
59208;DHT22;44977;53.132;6.408;2023-08-06T06:11:04;15.00;99.90
59208;DHT22;44977;53.132;6.408;2023-08-06T06:16:04;15.00;99.90
59208;DHT22;44977;53.132;6.408;2023-08-06T06:21:05;15.10;99.90
59208;DHT22;44977;53.132;6.408;2023-08-06T06:26:06;15.10;99.90
59208;DHT22;44977;53.132;6.408;2023-08-06T06:31:07;15.20;99.90
59208;DHT22;44977;53.132;6.408;2023-08-06T06:36:07;15.30;99.90
59208;DHT22;44977;53.132;6.408;2023-08-06T06:41:08;15.30;99.90
59208;DHT22;44977;53.132;6.408;2023-08-06T06:46:09;15.30;99.90
59208;DHT22;44977;53.132;6.408;2023-08-06T06:51:09;15.40;99.90
59208;DHT22;44977;53.132;6.408;2023-08-06T06:56:10;15.40;99.90
59208;DHT22;44977;53.132;6.408;2023-08-06T07:01:12;15.50;99.90
59208;DHT22;44977;53.132;6.408;2023-08-06T07:06:12;15.50;99.90
59208;DHT22;44977;53.132;6.408;2023-08-06T07:11:13;15.60;99.90
59208;DHT22;44977;53.132;6.408;2023-08-06T07:16:14;15.70;99.90
59208;DHT22;44977;53.132;6.408;2023-08-06T07:21:15;15.80;99.90
59208;DHT22;44977;53.132;6.408;2023-08-06T07:26:16;15.80;99.90
59208;DHT22;44977;53.132;6.408;2023-08-06T07:31:17;16.00;99.90
59208;DHT22;44977;53.132;6.408;2023-08-06T07:36:18;16.10;99.90
59208;DHT22;44977;53.132;6.408;2023-08-06T07:41:18;16.30;99.90
59208;DHT22;44977;53.132;6.408;2023-08-06T07:46:19;16.60;99.90
59208;DHT22;44977;53.132;6.408;2023-08-06T07:51:20;16.80;99.90
59208;DHT22;44977;53.132;6.408;2023-08-06T07:56:20;16.90;99.90
59208;DHT22;44977;53.132;6.408;2023-08-06T08:01:22;17.00;99.90
59208;DHT22;44977;53.132;6.408;2023-08-06T08:06:22;17.10;99.90
59208;DHT22;44977;53.132;6.408;2023-08-06T08:11:23;17.30;99.90
59208;DHT22;44977;53.132;6.408;2023-08-06T08:16:24;17.50;99.90
59208;DHT22;44977;53.132;6.408;2023-08-06T08:21:25;17.60;99.90
59208;DHT22;44977;53.132;6.408;2023-08-06T08:26:26;18.00;99.90
59208;DHT22;44977;53.132;6.408;2023-08-06T08:31:28;18.20;99.90
59208;DHT22;44977;53.132;6.408;2023-08-06T08:36:29;18.70;99.90
59208;DHT22;44977;53.132;6.408;2023-08-06T08:41:33;18.80;99.90
59208;DHT22;44977;53.132;6.408;2023-08-06T08:46:36;19.10;99.90
59208;DHT22;44977;53.132;6.408;2023-08-06T08:51:38;19.40;99.90
59208;DHT22;44977;53.132;6.408;2023-08-06T08:56:39;19.70;99.90
59208;DHT22;44977;53.132;6.408;2023-08-06T09:01:40;19.90;99.90
59208;DHT22;44977;53.132;6.408;2023-08-06T09:06:43;20.30;99.90
59208;DHT22;44977;53.132;6.408;2023-08-06T09:11:48;20.50;99.90
59208;DHT22;44977;53.132;6.408;2023-08-06T09:16:49;20.50;99.90
59208;DHT22;44977;53.132;6.408;2023-08-06T09:21:51;20.50;99.90
59208;DHT22;44977;53.132;6.408;2023-08-06T09:26:52;20.60;99.90
59208;DHT22;44977;53.132;6.408;2023-08-06T09:31:53;20.60;99.90
59208;DHT22;44977;53.132;6.408;2023-08-06T09:36:54;20.70;99.90
59208;DHT22;44977;53.132;6.408;2023-08-06T09:41:59;20.70;99.90
59208;DHT22;44977;53.132;6.408;2023-08-06T09:47:03;20.80;99.90
59208;DHT22;44977;53.132;6.408;2023-08-06T09:52:05;20.80;99.90
59208;DHT22;44977;53.132;6.408;2023-08-06T09:57:06;20.90;99.90
59208;DHT22;44977;53.132;6.408;2023-08-06T10:02:12;21.00;99.90
59208;DHT22;44977;53.132;6.408;2023-08-06T10:07:13;21.10;99.90
59208;DHT22;44977;53.132;6.408;2023-08-06T10:12:15;21.20;99.90
59208;DHT22;44977;53.132;6.408;2023-08-06T10:17:19;21.40;99.90
59208;DHT22;44977;53.132;6.408;2023-08-06T10:22:20;21.50;99.90
59208;DHT22;44977;53.132;6.408;2023-08-06T10:32:47;21.60;99.90
59208;DHT22;44977;53.132;6.408;2023-08-06T10:37:49;21.70;99.90
59208;DHT22;44977;53.132;6.408;2023-08-06T10:42:50;21.60;99.90
59208;DHT22;44977;53.132;6.408;2023-08-06T10:47:50;21.60;99.90
59208;DHT22;44977;53.132;6.408;2023-08-06T10:52:51;21.70;99.90
59208;DHT22;44977;53.132;6.408;2023-08-06T10:57:53;21.80;99.90
59208;DHT22;44977;53.132;6.408;2023-08-06T11:02:54;21.80;99.90
59208;DHT22;44977;53.132;6.408;2023-08-06T11:07:58;21.90;99.90
59208;DHT22;44977;53.132;6.408;2023-08-06T11:13:05;21.90;99.90
59208;DHT22;44977;53.132;6.408;2023-08-06T11:18:08;21.90;99.90
59208;DHT22;44977;53.132;6.408;2023-08-06T11:23:10;21.90;99.90
59208;DHT22;44977;53.132;6.408;2023-08-06T11:28:11;21.90;99.90
59208;DHT22;44977;53.132;6.408;2023-08-06T11:33:12;21.90;99.90
59208;DHT22;44977;53.132;6.408;2023-08-06T11:38:13;22.20;99.90
59208;DHT22;44977;53.132;6.408;2023-08-06T11:43:14;22.30;99.90
59208;DHT22;44977;53.132;6.408;2023-08-06T11:48:15;22.50;99.90
59208;DHT22;44977;53.132;6.408;2023-08-06T11:53:17;22.80;99.90
59208;DHT22;44977;53.132;6.408;2023-08-06T11:58:18;23.00;99.90
59208;DHT22;44977;53.132;6.408;2023-08-06T12:03:19;22.90;99.90
59208;DHT22;44977;53.132;6.408;2023-08-06T12:08:20;22.90;99.90
59208;DHT22;44977;53.132;6.408;2023-08-06T12:13:26;23.00;99.90
59208;DHT22;44977;53.132;6.408;2023-08-06T12:18:27;22.90;99.90
59208;DHT22;44977;53.132;6.408;2023-08-06T12:23:28;22.80;99.90
59208;DHT22;44977;53.132;6.408;2023-08-06T12:28:29;22.80;99.90
59208;DHT22;44977;53.132;6.408;2023-08-06T12:33:30;22.90;99.90
59208;DHT22;44977;53.132;6.408;2023-08-06T12:38:30;22.90;99.90
59208;DHT22;44977;53.132;6.408;2023-08-06T12:43:34;22.90;99.90
59208;DHT22;44977;53.132;6.408;2023-08-06T12:48:34;22.80;99.90
59208;DHT22;44977;53.132;6.408;2023-08-06T12:53:35;22.70;99.90
59208;DHT22;44977;53.132;6.408;2023-08-06T12:58:36;22.90;99.90
59208;DHT22;44977;53.132;6.408;2023-08-06T13:03:37;23.00;99.90
59208;DHT22;44977;53.132;6.408;2023-08-06T13:08:37;22.80;99.90
59208;DHT22;44977;53.132;6.408;2023-08-06T13:13:39;22.60;99.90
59208;DHT22;44977;53.132;6.408;2023-08-06T13:18:39;22.50;99.90
59208;DHT22;44977;53.132;6.408;2023-08-06T13:23:40;22.30;99.90
59208;DHT22;44977;53.132;6.408;2023-08-06T13:28:41;22.20;99.90
59208;DHT22;44977;53.132;6.408;2023-08-06T13:33:44;22.10;99.90
59208;DHT22;44977;53.132;6.408;2023-08-06T13:38:45;21.90;99.90
59208;DHT22;44977;53.132;6.408;2023-08-06T13:43:46;21.70;99.90
59208;DHT22;44977;53.132;6.408;2023-08-06T13:48:48;21.60;99.90
59208;DHT22;44977;53.132;6.408;2023-08-06T13:53:51;21.70;99.90
59208;DHT22;44977;53.132;6.408;2023-08-06T13:58:53;21.80;99.90
59208;DHT22;44977;53.132;6.408;2023-08-06T14:03:53;21.80;99.90
59208;DHT22;44977;53.132;6.408;2023-08-06T14:08:54;21.90;99.90
59208;DHT22;44977;53.132;6.408;2023-08-06T14:13:55;21.90;99.90
59208;DHT22;44977;53.132;6.408;2023-08-06T14:18:55;22.00;99.90
59208;DHT22;44977;53.132;6.408;2023-08-06T14:23:56;22.20;99.90
59208;DHT22;44977;53.132;6.408;2023-08-06T14:28:57;22.20;99.90
59208;DHT22;44977;53.132;6.408;2023-08-06T14:33:57;22.20;99.90
59208;DHT22;44977;53.132;6.408;2023-08-06T14:38:58;22.20;99.90
59208;DHT22;44977;53.132;6.408;2023-08-06T14:43:59;22.20;99.90
59208;DHT22;44977;53.132;6.408;2023-08-06T14:49:00;22.20;99.90
59208;DHT22;44977;53.132;6.408;2023-08-06T14:54:00;22.30;99.90
59208;DHT22;44977;53.132;6.408;2023-08-06T14:59:01;22.20;99.90
59208;DHT22;44977;53.132;6.408;2023-08-06T15:04:02;22.20;99.90
59208;DHT22;44977;53.132;6.408;2023-08-06T15:09:02;22.20;99.90
59208;DHT22;44977;53.132;6.408;2023-08-06T15:14:03;22.20;99.90
59208;DHT22;44977;53.132;6.408;2023-08-06T15:19:07;22.20;99.90
59208;DHT22;44977;53.132;6.408;2023-08-06T15:24:08;22.20;99.90
59208;DHT22;44977;53.132;6.408;2023-08-06T15:29:08;22.20;99.90
59208;DHT22;44977;53.132;6.408;2023-08-06T15:34:10;22.20;99.90
59208;DHT22;44977;53.132;6.408;2023-08-06T15:39:10;22.00;99.90
59208;DHT22;44977;53.132;6.408;2023-08-06T15:44:11;21.90;99.90
59208;DHT22;44977;53.132;6.408;2023-08-06T15:49:12;21.90;99.90
59208;DHT22;44977;53.132;6.408;2023-08-06T15:54:13;21.80;99.90
59208;DHT22;44977;53.132;6.408;2023-08-06T15:59:28;21.70;99.90
59208;DHT22;44977;53.132;6.408;2023-08-06T16:04:29;21.60;99.90
59208;DHT22;44977;53.132;6.408;2023-08-06T16:09:30;21.40;99.90
59208;DHT22;44977;53.132;6.408;2023-08-06T16:14:31;21.40;99.90
59208;DHT22;44977;53.132;6.408;2023-08-06T16:19:32;21.30;99.90
59208;DHT22;44977;53.132;6.408;2023-08-06T16:24:33;21.40;99.90
59208;DHT22;44977;53.132;6.408;2023-08-06T16:29:36;21.30;99.90
59208;DHT22;44977;53.132;6.408;2023-08-06T16:34:38;21.10;99.90
59208;DHT22;44977;53.132;6.408;2023-08-06T16:39:38;21.20;99.90
59208;DHT22;44977;53.132;6.408;2023-08-06T16:44:39;21.20;99.90
59208;DHT22;44977;53.132;6.408;2023-08-06T16:49:41;21.20;99.90
59208;DHT22;44977;53.132;6.408;2023-08-06T16:54:41;21.20;99.90
59208;DHT22;44977;53.132;6.408;2023-08-06T16:59:42;21.10;99.90
59208;DHT22;44977;53.132;6.408;2023-08-06T17:04:46;21.00;99.90
59208;DHT22;44977;53.132;6.408;2023-08-06T17:09:46;20.90;99.90
59208;DHT22;44977;53.132;6.408;2023-08-06T17:14:47;20.70;99.90
59208;DHT22;44977;53.132;6.408;2023-08-06T17:19:48;20.60;99.90
59208;DHT22;44977;53.132;6.408;2023-08-06T17:24:48;20.40;99.90
59208;DHT22;44977;53.132;6.408;2023-08-06T17:29:49;20.20;99.90
59208;DHT22;44977;53.132;6.408;2023-08-06T17:34:50;20.10;99.90
59208;DHT22;44977;53.132;6.408;2023-08-06T17:39:51;20.00;99.90
59208;DHT22;44977;53.132;6.408;2023-08-06T17:44:51;19.80;99.90
59208;DHT22;44977;53.132;6.408;2023-08-06T17:49:52;19.70;99.90
59208;DHT22;44977;53.132;6.408;2023-08-06T17:54:55;19.60;99.90
59208;DHT22;44977;53.132;6.408;2023-08-06T17:59:56;19.40;99.90
59208;DHT22;44977;53.132;6.408;2023-08-06T18:04:56;19.30;99.90
59208;DHT22;44977;53.132;6.408;2023-08-06T18:09:57;19.20;99.90
59208;DHT22;44977;53.132;6.408;2023-08-06T18:14:58;19.10;99.90
59208;DHT22;44977;53.132;6.408;2023-08-06T18:19:58;18.90;99.90
59208;DHT22;44977;53.132;6.408;2023-08-06T18:24:59;18.80;99.90
59208;DHT22;44977;53.132;6.408;2023-08-06T18:30:03;18.70;99.90
59208;DHT22;44977;53.132;6.408;2023-08-06T18:35:04;18.50;99.90
59208;DHT22;44977;53.132;6.408;2023-08-06T18:40:07;18.50;99.90
59208;DHT22;44977;53.132;6.408;2023-08-06T18:45:08;18.40;99.90
59208;DHT22;44977;53.132;6.408;2023-08-06T18:50:09;18.20;99.90
59208;DHT22;44977;53.132;6.408;2023-08-06T18:55:10;18.20;99.90
59208;DHT22;44977;53.132;6.408;2023-08-06T19:00:11;18.10;99.90
59208;DHT22;44977;53.132;6.408;2023-08-06T19:05:11;18.10;99.90
59208;DHT22;44977;53.132;6.408;2023-08-06T19:10:12;18.00;99.90
59208;DHT22;44977;53.132;6.408;2023-08-06T19:15:13;18.00;99.90
59208;DHT22;44977;53.132;6.408;2023-08-06T19:20:14;17.80;99.90
59208;DHT22;44977;53.132;6.408;2023-08-06T19:25:15;17.70;99.90
59208;DHT22;44977;53.132;6.408;2023-08-06T19:30:16;17.60;99.90
59208;DHT22;44977;53.132;6.408;2023-08-06T19:35:17;17.50;99.90
59208;DHT22;44977;53.132;6.408;2023-08-06T19:40:17;17.50;99.90
59208;DHT22;44977;53.132;6.408;2023-08-06T19:45:18;17.40;99.90
59208;DHT22;44977;53.132;6.408;2023-08-06T19:50:20;17.30;99.90
59208;DHT22;44977;53.132;6.408;2023-08-06T19:55:22;17.20;99.90
59208;DHT22;44977;53.132;6.408;2023-08-06T20:00:22;17.20;99.90
59208;DHT22;44977;53.132;6.408;2023-08-06T20:05:24;17.10;99.90
59208;DHT22;44977;53.132;6.408;2023-08-06T20:10:25;17.00;99.90
59208;DHT22;44977;53.132;6.408;2023-08-06T20:15:25;17.00;99.90
59208;DHT22;44977;53.132;6.408;2023-08-06T20:20:26;16.90;99.90
59208;DHT22;44977;53.132;6.408;2023-08-06T20:25:27;16.80;99.90
59208;DHT22;44977;53.132;6.408;2023-08-06T20:30:28;16.70;99.90
59208;DHT22;44977;53.132;6.408;2023-08-06T20:35:28;16.70;99.90
59208;DHT22;44977;53.132;6.408;2023-08-06T20:40:29;16.60;99.90
59208;DHT22;44977;53.132;6.408;2023-08-06T20:45:30;16.60;99.90
59208;DHT22;44977;53.132;6.408;2023-08-06T20:50:30;16.60;99.90
59208;DHT22;44977;53.132;6.408;2023-08-06T20:55:31;16.50;99.90
59208;DHT22;44977;53.132;6.408;2023-08-06T21:00:33;16.50;99.90
59208;DHT22;44977;53.132;6.408;2023-08-06T21:05:34;16.50;99.90
59208;DHT22;44977;53.132;6.408;2023-08-06T21:10:35;16.40;99.90
59208;DHT22;44977;53.132;6.408;2023-08-06T21:15:35;16.40;99.90
59208;DHT22;44977;53.132;6.408;2023-08-06T21:20:36;16.40;99.90
59208;DHT22;44977;53.132;6.408;2023-08-06T21:25:37;16.40;99.90
59208;DHT22;44977;53.132;6.408;2023-08-06T21:30:37;16.30;99.90
59208;DHT22;44977;53.132;6.408;2023-08-06T21:35:38;16.40;99.90
59208;DHT22;44977;53.132;6.408;2023-08-06T21:40:39;16.30;99.90
59208;DHT22;44977;53.132;6.408;2023-08-06T21:45:39;16.30;99.90
59208;DHT22;44977;53.132;6.408;2023-08-06T21:50:40;16.30;99.90
59208;DHT22;44977;53.132;6.408;2023-08-06T21:55:41;16.20;99.90
59208;DHT22;44977;53.132;6.408;2023-08-06T22:00:41;16.20;99.90
59208;DHT22;44977;53.132;6.408;2023-08-06T22:05:42;16.20;99.90
59208;DHT22;44977;53.132;6.408;2023-08-06T22:10:43;16.10;99.90
59208;DHT22;44977;53.132;6.408;2023-08-06T22:15:44;16.10;99.90
59208;DHT22;44977;53.132;6.408;2023-08-06T22:20:45;16.00;99.90
59208;DHT22;44977;53.132;6.408;2023-08-06T22:25:45;16.00;99.90
59208;DHT22;44977;53.132;6.408;2023-08-06T22:30:46;15.90;99.90
59208;DHT22;44977;53.132;6.408;2023-08-06T22:35:47;15.90;99.90
59208;DHT22;44977;53.132;6.408;2023-08-06T22:40:48;15.80;99.90
59208;DHT22;44977;53.132;6.408;2023-08-06T22:45:49;15.80;99.90
59208;DHT22;44977;53.132;6.408;2023-08-06T22:50:50;15.80;99.90
59208;DHT22;44977;53.132;6.408;2023-08-06T22:55:50;15.70;99.90
59208;DHT22;44977;53.132;6.408;2023-08-06T23:00:51;15.70;99.90
59208;DHT22;44977;53.132;6.408;2023-08-06T23:05:52;15.70;99.90
59208;DHT22;44977;53.132;6.408;2023-08-06T23:10:52;15.70;99.90
59208;DHT22;44977;53.132;6.408;2023-08-06T23:15:53;15.70;99.90
59208;DHT22;44977;53.132;6.408;2023-08-06T23:20:54;15.70;99.90
59208;DHT22;44977;53.132;6.408;2023-08-06T23:25:55;15.70;99.90
59208;DHT22;44977;53.132;6.408;2023-08-06T23:30:55;15.70;99.90
59208;DHT22;44977;53.132;6.408;2023-08-06T23:35:56;15.70;99.90
59208;DHT22;44977;53.132;6.408;2023-08-06T23:40:57;15.70;99.90
59208;DHT22;44977;53.132;6.408;2023-08-06T23:45:57;15.60;99.90
59208;DHT22;44977;53.132;6.408;2023-08-06T23:50:59;15.60;99.90
59208;DHT22;44977;53.132;6.408;2023-08-06T23:56:00;15.60;99.90
